Time;durP1;ratioP1;P1;durP2;ratioP2;P2;SDS_P1;SDS_P2;PMS_P1;PMS_P2;Temp;Humidity;BMP_temperature;BMP_pressure;BME280_temperature;BME280_humidity;BME280_pressure;Samples;Min_cycle;Max_cycle;Signal;HPM_P1;HPM_P2
2021/08/27 00:01:28;;;;;;;5.04;2.01;;;;;;;21.18;69.94;100240.69;;;;-58
2021/08/27 00:04:28;;;;;;;2.19;1.88;;;;;;;21.18;69.91;100241.50;;;;-58
2021/08/27 00:07:28;;;;;;;1.96;1.79;;;;;;;21.17;69.94;100236.38;;;;-58
2021/08/27 00:10:28;;;;;;;2.93;1.95;;;;;;;21.18;69.91;100236.13;;;;-58
2021/08/27 00:13:29;;;;;;;3.89;1.73;;;;;;;21.17;69.93;100239.57;;;;-58
2021/08/27 00:16:28;;;;;;;2.19;1.80;;;;;;;21.16;69.92;100239.55;;;;-58
2021/08/27 00:19:28;;;;;;;2.43;1.89;;;;;;;21.17;69.94;100237.29;;;;-58
2021/08/27 00:22:28;;;;;;;2.31;1.81;;;;;;;21.16;69.93;100238.49;;;;-58
2021/08/27 00:25:28;;;;;;;2.46;1.79;;;;;;;21.15;69.92;100239.73;;;;-58
2021/08/27 00:28:28;;;;;;;1.96;1.73;;;;;;;21.15;69.92;100239.16;;;;-58
2021/08/27 00:31:28;;;;;;;2.71;1.79;;;;;;;21.15;69.95;100243.39;;;;-58
2021/08/27 00:34:28;;;;;;;2.30;1.91;;;;;;;21.14;69.96;100241.52;;;;-58
2021/08/27 00:37:28;;;;;;;2.15;1.90;;;;;;;21.13;70.01;100239.73;;;;-58
2021/08/27 00:40:28;;;;;;;2.07;1.70;;;;;;;21.14;69.95;100232.72;;;;-52
2021/08/27 00:43:28;;;;;;;1.82;1.69;;;;;;;21.13;69.99;100235.52;;;;-52
2021/08/27 00:46:28;;;;;;;2.13;1.85;;;;;;;21.12;70.00;100237.77;;;;-53
2021/08/27 00:49:28;;;;;;;2.56;1.81;;;;;;;21.13;69.98;100240.73;;;;-53
2021/08/27 00:52:28;;;;;;;2.25;1.74;;;;;;;21.12;70.00;100241.59;;;;-52
2021/08/27 00:55:28;;;;;;;2.53;1.90;;;;;;;21.12;69.97;100248.93;;;;-52
2021/08/27 00:58:28;;;;;;;2.07;1.71;;;;;;;21.12;70.03;100252.28;;;;-52
2021/08/27 01:01:28;;;;;;;2.51;1.81;;;;;;;21.12;69.97;100247.48;;;;-52
2021/08/27 01:04:28;;;;;;;2.06;1.86;;;;;;;21.12;70.02;100248.78;;;;-52
2021/08/27 01:07:28;;;;;;;2.56;1.84;;;;;;;21.11;70.04;100250.27;;;;-52
2021/08/27 01:10:28;;;;;;;1.99;1.70;;;;;;;21.10;69.99;100247.55;;;;-52
2021/08/27 01:13:28;;;;;;;2.07;1.86;;;;;;;21.10;69.98;100254.49;;;;-52
2021/08/27 01:16:28;;;;;;;2.85;1.75;;;;;;;21.10;69.96;100255.38;;;;-53
2021/08/27 01:19:28;;;;;;;2.01;1.67;;;;;;;21.09;70.05;100254.02;;;;-52
2021/08/27 01:24:28;;;;;;;2.39;1.95;;;;;;;21.08;70.04;100254.81;;;;-52
2021/08/27 01:27:28;;;;;;;2.03;1.84;;;;;;;21.08;70.06;100253.67;;;;-52
2021/08/27 01:30:28;;;;;;;2.23;1.83;;;;;;;21.08;70.03;100252.05;;;;-52
2021/08/27 01:33:28;;;;;;;1.83;1.65;;;;;;;21.07;70.05;100257.85;;;;-52
2021/08/27 01:36:28;;;;;;;2.40;1.84;;;;;;;21.07;70.06;100256.38;;;;-52
2021/08/27 01:39:28;;;;;;;2.41;1.83;;;;;;;21.06;70.10;100258.08;;;;-52
2021/08/27 01:42:28;;;;;;;2.03;1.79;;;;;;;21.07;70.07;100257.20;;;;-52
2021/08/27 01:45:28;;;;;;;2.14;1.88;;;;;;;21.06;70.11;100258.02;;;;-52
2021/08/27 01:48:30;;;;;;;1.79;1.65;;;;;;;21.06;70.05;100258.73;;;;-52
2021/08/27 01:51:28;;;;;;;2.09;1.87;;;;;;;21.07;70.05;100260.05;;;;-52
2021/08/27 01:54:28;;;;;;;2.22;1.91;;;;;;;21.06;70.06;100260.05;;;;-52
2021/08/27 01:57:28;;;;;;;2.03;1.81;;;;;;;21.05;70.06;100262.75;;;;-52
2021/08/27 02:00:28;;;;;;;1.92;1.80;;;;;;;21.05;70.06;100266.33;;;;-52
2021/08/27 02:03:28;;;;;;;1.85;1.73;;;;;;;21.05;70.10;100268.69;;;;-52
2021/08/27 02:06:29;;;;;;;1.96;1.81;;;;;;;21.05;70.07;100265.60;;;;-52
2021/08/27 02:09:28;;;;;;;1.91;1.74;;;;;;;21.04;70.04;100261.19;;;;-52
2021/08/27 02:12:28;;;;;;;1.96;1.77;;;;;;;21.03;70.08;100261.93;;;;-52
2021/08/27 02:15:28;;;;;;;3.11;1.81;;;;;;;21.03;70.06;100259.97;;;;-52
2021/08/27 02:18:28;;;;;;;1.87;1.72;;;;;;;21.04;70.07;100259.72;;;;-52
2021/08/27 02:21:28;;;;;;;1.85;1.75;;;;;;;21.03;70.06;100262.25;;;;-52
2021/08/27 02:24:28;;;;;;;2.11;1.79;;;;;;;21.03;70.07;100266.82;;;;-53
2021/08/27 02:27:28;;;;;;;1.93;1.71;;;;;;;21.03;70.06;100266.00;;;;-52
2021/08/27 02:30:28;;;;;;;2.06;1.86;;;;;;;21.02;70.09;100266.90;;;;-52
2021/08/27 02:33:28;;;;;;;1.89;1.75;;;;;;;21.02;70.07;100263.95;;;;-52
2021/08/27 02:36:28;;;;;;;1.94;1.70;;;;;;;21.02;70.04;100271.23;;;;-52
2021/08/27 02:39:28;;;;;;;1.91;1.80;;;;;;;21.02;70.04;100275.37;;;;-58
2021/08/27 02:42:31;;;;;;;1.87;1.77;;;;;;;21.02;70.04;100284.00;;;;-58
2021/08/27 02:45:28;;;;;;;1.86;1.75;;;;;;;21.02;70.06;100282.05;;;;-58
2021/08/27 02:48:29;;;;;;;2.04;1.77;;;;;;;21.01;70.10;100286.62;;;;-58
2021/08/27 02:51:28;;;;;;;2.01;1.88;;;;;;;21.01;70.10;100286.70;;;;-58
2021/08/27 02:54:28;;;;;;;2.80;1.80;;;;;;;21.01;70.07;100285.66;;;;-58
2021/08/27 02:57:28;;;;;;;2.07;1.79;;;;;;;21.01;70.08;100287.85;;;;-58
2021/08/27 03:00:28;;;;;;;1.83;1.73;;;;;;;21.01;70.01;100281.75;;;;-58
2021/08/27 03:03:28;;;;;;;2.00;1.70;;;;;;;21.00;70.10;100280.67;;;;-58
2021/08/27 03:06:28;;;;;;;1.77;1.67;;;;;;;20.99;70.05;100275.55;;;;-55
2021/08/27 03:09:28;;;;;;;2.02;1.78;;;;;;;20.99;70.09;100272.87;;;;-55
2021/08/27 03:12:28;;;;;;;1.80;1.70;;;;;;;20.98;70.11;100269.70;;;;-54
2021/08/27 03:15:28;;;;;;;1.85;1.71;;;;;;;20.98;70.09;100267.41;;;;-55
2021/08/27 03:18:28;;;;;;;1.91;1.71;;;;;;;20.96;70.08;100257.48;;;;-58
2021/08/27 03:21:28;;;;;;;1.80;1.67;;;;;;;20.97;70.07;100256.98;;;;-58
2021/08/27 03:24:28;;;;;;;1.95;1.79;;;;;;;20.97;70.03;100262.67;;;;-58
2021/08/27 03:27:28;;;;;;;2.03;1.75;;;;;;;20.97;70.07;100261.06;;;;-58
2021/08/27 03:30:29;;;;;;;1.70;1.60;;;;;;;20.96;70.06;100265.53;;;;-58
2021/08/27 03:33:28;;;;;;;1.83;1.70;;;;;;;20.95;70.07;100271.08;;;;-58
2021/08/27 03:36:28;;;;;;;2.15;1.70;;;;;;;20.95;70.09;100270.19;;;;-59
2021/08/27 03:39:28;;;;;;;1.95;1.69;;;;;;;20.95;70.06;100268.88;;;;-58
2021/08/27 03:42:28;;;;;;;1.89;1.70;;;;;;;20.95;70.13;100270.19;;;;-57
2021/08/27 03:45:29;;;;;;;1.71;1.61;;;;;;;20.95;70.08;100269.86;;;;-58
2021/08/27 03:48:28;;;;;;;1.85;1.71;;;;;;;20.94;70.06;100271.66;;;;-57
2021/08/27 03:51:29;;;;;;;1.97;1.64;;;;;;;20.94;70.07;100272.05;;;;-58
2021/08/27 03:54:28;;;;;;;2.05;1.69;;;;;;;20.93;70.09;100270.59;;;;-58
2021/08/27 03:57:28;;;;;;;1.71;1.61;;;;;;;20.92;70.11;100266.45;;;;-58
2021/08/27 04:00:28;;;;;;;1.92;1.63;;;;;;;20.92;70.12;100272.56;;;;-58
2021/08/27 04:03:28;;;;;;;2.98;1.76;;;;;;;20.92;70.13;100278.34;;;;-58
2021/08/27 04:06:28;;;;;;;2.23;1.77;;;;;;;20.91;70.13;100280.45;;;;-58
2021/08/27 04:09:28;;;;;;;1.74;1.64;;;;;;;20.92;70.09;100285.09;;;;-58
2021/08/27 04:12:28;;;;;;;2.04;1.69;;;;;;;20.91;70.06;100293.74;;;;-58
2021/08/27 04:15:28;;;;;;;1.82;1.64;;;;;;;20.90;70.10;100295.45;;;;-58
2021/08/27 04:18:28;;;;;;;1.98;1.81;;;;;;;20.91;70.14;100296.27;;;;-59
2021/08/27 04:21:28;;;;;;;2.00;1.80;;;;;;;20.91;70.10;100303.92;;;;-58
2021/08/27 04:24:28;;;;;;;1.87;1.70;;;;;;;20.91;70.11;100305.96;;;;-58
2021/08/27 04:27:28;;;;;;;1.61;1.51;;;;;;;20.91;70.07;100309.71;;;;-55
2021/08/27 04:30:28;;;;;;;1.60;1.50;;;;;;;20.89;70.17;100308.31;;;;-54
2021/08/27 04:33:28;;;;;;;1.80;1.70;;;;;;;20.89;70.13;100306.77;;;;-55
2021/08/27 04:36:28;;;;;;;1.70;1.60;;;;;;;20.88;70.17;100304.83;;;;-56
2021/08/27 04:39:28;;;;;;;1.75;1.65;;;;;;;20.89;70.16;100308.56;;;;-55
2021/08/27 04:42:28;;;;;;;1.78;1.65;;;;;;;20.88;70.16;100310.28;;;;-55
2021/08/27 04:45:28;;;;;;;1.87;1.72;;;;;;;20.89;70.15;100315.00;;;;-54
2021/08/27 04:48:28;;;;;;;2.15;1.76;;;;;;;20.89;70.20;100321.52;;;;-58
2021/08/27 04:51:28;;;;;;;1.73;1.63;;;;;;;20.88;70.21;100325.94;;;;-57
2021/08/27 04:54:28;;;;;;;1.65;1.55;;;;;;;20.88;70.23;100325.61;;;;-52
2021/08/27 04:57:29;;;;;;;1.60;1.50;;;;;;;20.88;70.21;100331.64;;;;-52
2021/08/27 05:00:28;;;;;;;5.81;2.75;;;;;;;20.85;65.07;100335.20;;;;-58
2021/08/27 05:03:28;;;;;;;9.75;3.07;;;;;;;20.66;63.25;100333.67;;;;-59
2021/08/27 05:06:28;;;;;;;5.83;2.68;;;;;;;20.48;62.35;100334.63;;;;-52
2021/08/27 05:09:28;;;;;;;4.67;2.87;;;;;;;20.25;62.23;100333.33;;;;-52
2021/08/27 05:12:28;;;;;;;5.68;2.93;;;;;;;20.10;62.52;100334.52;;;;-58
2021/08/27 05:15:28;;;;;;;4.19;2.78;;;;;;;19.96;62.66;100334.23;;;;-52
2021/08/27 05:18:29;;;;;;;3.97;2.73;;;;;;;19.82;62.56;100337.48;;;;-52
2021/08/27 05:21:28;;;;;;;4.20;2.94;;;;;;;19.73;62.79;100343.20;;;;-60
2021/08/27 05:24:28;;;;;;;6.41;3.00;;;;;;;19.55;63.38;100344.97;;;;-52
2021/08/27 05:27:28;;;;;;;5.05;2.62;;;;;;;19.57;64.28;100345.41;;;;-52
2021/08/27 05:30:28;;;;;;;7.06;2.56;;;;;;;19.66;64.50;100353.56;;;;-51
2021/08/27 05:33:28;;;;;;;5.33;2.39;;;;;;;19.75;64.83;100359.55;;;;-52
2021/08/27 05:36:28;;;;;;;4.42;2.37;;;;;;;19.83;65.66;100363.23;;;;-52
2021/08/27 05:39:28;;;;;;;3.31;2.36;;;;;;;19.89;66.05;100361.48;;;;-52
2021/08/27 05:42:28;;;;;;;3.66;2.37;;;;;;;19.94;66.35;100364.32;;;;-59
2021/08/27 05:45:28;;;;;;;2.97;2.10;;;;;;;19.99;66.38;100368.34;;;;-59
2021/08/27 05:48:28;;;;;;;3.38;2.29;;;;;;;20.03;66.59;100371.03;;;;-60
2021/08/27 05:51:28;;;;;;;3.49;2.29;;;;;;;20.06;66.62;100379.08;;;;-60
2021/08/27 05:54:28;;;;;;;2.89;2.20;;;;;;;20.09;66.85;100385.20;;;;-59
2021/08/27 05:57:28;;;;;;;4.44;2.31;;;;;;;20.12;66.91;100388.87;;;;-60
2021/08/27 06:00:28;;;;;;;6.03;2.27;;;;;;;20.13;67.07;100387.25;;;;-60
2021/08/27 06:03:28;;;;;;;2.50;2.06;;;;;;;20.15;67.17;100385.20;;;;-51
2021/08/27 06:06:28;;;;;;;2.33;1.90;;;;;;;20.16;67.18;100383.17;;;;-51
2021/08/27 06:09:28;;;;;;;3.01;2.01;;;;;;;20.18;67.34;100381.16;;;;-53
2021/08/27 06:12:28;;;;;;;2.27;1.90;;;;;;;20.18;67.44;100383.50;;;;-60
2021/08/27 06:15:28;;;;;;;4.74;1.98;;;;;;;20.20;67.46;100380.75;;;;-59
2021/08/27 06:18:28;;;;;;;3.97;2.00;;;;;;;20.21;67.50;100381.55;;;;-60
2021/08/27 06:21:28;;;;;;;3.55;2.18;;;;;;;20.22;67.60;100377.58;;;;-52
2021/08/27 06:24:28;;;;;;;3.15;1.95;;;;;;;20.24;67.67;100376.53;;;;-52
2021/08/27 06:27:28;;;;;;;3.06;2.09;;;;;;;20.25;67.71;100373.92;;;;-53
2021/08/27 06:30:28;;;;;;;2.61;2.03;;;;;;;20.24;67.77;100378.23;;;;-52
2021/08/27 06:33:30;;;;;;;2.93;2.00;;;;;;;20.26;67.80;100384.42;;;;-60
2021/08/27 06:36:28;;;;;;;2.64;1.91;;;;;;;20.26;67.84;100382.31;;;;-59
2021/08/27 06:39:28;;;;;;;2.11;1.79;;;;;;;20.27;67.88;100381.84;;;;-52
2021/08/27 06:42:28;;;;;;;2.09;1.89;;;;;;;20.28;67.98;100384.19;;;;-52
2021/08/27 06:45:28;;;;;;;2.73;1.93;;;;;;;20.27;67.98;100388.34;;;;-53
2021/08/27 06:48:28;;;;;;;3.13;1.99;;;;;;;20.29;68.04;100394.11;;;;-52
2021/08/27 06:51:29;;;;;;;2.25;1.93;;;;;;;20.30;68.10;100402.10;;;;-51
2021/08/27 06:54:28;;;;;;;2.61;1.99;;;;;;;20.30;68.12;100400.47;;;;-52
2021/08/27 06:57:28;;;;;;;3.97;1.85;;;;;;;20.31;68.16;100407.55;;;;-52
2021/08/27 07:00:28;;;;;;;3.15;1.99;;;;;;;20.31;68.17;100412.66;;;;-52
2021/08/27 07:03:28;;;;;;;2.87;1.92;;;;;;;20.31;68.18;100412.98;;;;-52
2021/08/27 07:06:28;;;;;;;2.19;1.99;;;;;;;20.32;68.22;100420.98;;;;-52
2021/08/27 07:09:28;;;;;;;2.13;1.90;;;;;;;20.32;68.23;100420.73;;;;-52
2021/08/27 07:12:28;;;;;;;2.17;1.79;;;;;;;20.33;68.27;100417.55;;;;-52
2021/08/27 07:15:28;;;;;;;2.03;1.73;;;;;;;20.34;68.30;100417.49;;;;-52
2021/08/27 07:18:29;;;;;;;2.30;1.80;;;;;;;20.33;68.27;100418.61;;;;-52
2021/08/27 07:21:28;;;;;;;1.91;1.70;;;;;;;20.33;68.33;100421.13;;;;-52
2021/08/27 07:24:28;;;;;;;2.26;1.86;;;;;;;20.34;68.34;100415.54;;;;-52
2021/08/27 07:27:28;;;;;;;1.98;1.80;;;;;;;20.34;68.38;100414.31;;;;-52
2021/08/27 07:30:28;;;;;;;2.35;1.94;;;;;;;20.34;68.40;100423.59;;;;-52
2021/08/27 07:33:28;;;;;;;2.13;1.76;;;;;;;20.35;68.41;100421.14;;;;-52
2021/08/27 07:36:28;;;;;;;2.43;1.90;;;;;;;20.36;68.40;100419.91;;;;-52
2021/08/27 07:39:28;;;;;;;2.01;1.80;;;;;;;20.36;68.41;100427.02;;;;-52
2021/08/27 07:42:28;;;;;;;2.01;1.86;;;;;;;20.36;68.46;100426.53;;;;-52
2021/08/27 07:45:29;;;;;;;2.03;1.83;;;;;;;20.36;68.47;100428.48;;;;-52
2021/08/27 07:48:28;;;;;;;2.04;1.81;;;;;;;20.37;68.47;100429.61;;;;-53
2021/08/27 07:51:28;;;;;;;4.31;2.01;;;;;;;20.37;68.50;100427.98;;;;-51
2021/08/27 07:54:28;;;;;;;1.99;1.77;;;;;;;20.40;68.43;100428.33;;;;-54
2021/08/27 07:57:28;;;;;;;3.74;1.83;;;;;;;20.41;68.51;100430.59;;;;-57
2021/08/27 08:00:28;;;;;;;2.98;1.71;;;;;;;20.43;68.57;100432.88;;;;-57
2021/08/27 08:03:28;;;;;;;2.92;1.73;;;;;;;20.45;68.63;100435.73;;;;-54
2021/08/27 08:06:28;;;;;;;3.34;1.81;;;;;;;20.47;68.70;100435.89;;;;-51
2021/08/27 08:09:28;;;;;;;3.47;1.83;;;;;;;20.49;68.74;100438.92;;;;-53
2021/08/27 08:12:28;;;;;;;3.02;1.75;;;;;;;20.51;68.75;100441.94;;;;-51
2021/08/27 08:15:29;;;;;;;6.12;2.04;;;;;;;20.52;68.77;100436.06;;;;-51
2021/08/27 08:18:30;;;;;;;2.91;1.92;;;;;;;20.54;68.70;100433.79;;;;-54
2021/08/27 08:21:28;;;;;;;6.93;1.98;;;;;;;20.55;68.63;100436.00;;;;-51
2021/08/27 08:24:28;;;;;;;3.62;1.89;;;;;;;20.56;68.46;100438.59;;;;-53
2021/08/27 08:27:33;;;;;;;2.54;1.83;;;;;;;20.56;68.54;100436.47;;;;-53
2021/08/27 08:30:28;;;;;;;6.37;1.83;;;;;;;20.54;68.54;100430.47;;;;-61
2021/08/27 08:33:28;;;;;;;2.20;1.85;;;;;;;20.55;68.47;100434.95;;;;-61
2021/08/27 08:36:28;;;;;;;2.12;1.74;;;;;;;20.54;68.55;100427.92;;;;-61
2021/08/27 08:39:28;;;;;;;3.19;1.87;;;;;;;20.55;68.57;100436.08;;;;-61
2021/08/27 08:42:28;;;;;;;3.70;1.87;;;;;;;20.56;68.62;100432.73;;;;-57
2021/08/27 08:45:28;;;;;;;2.10;1.83;;;;;;;20.57;68.65;100432.58;;;;-56
2021/08/27 08:48:28;;;;;;;3.25;1.88;;;;;;;20.58;68.74;100435.91;;;;-59
2021/08/27 08:51:28;;;;;;;5.69;1.97;;;;;;;20.58;68.87;100436.50;;;;-54
2021/08/27 08:54:28;;;;;;;3.97;2.03;;;;;;;20.59;68.91;100434.81;;;;-54
2021/08/27 08:57:28;;;;;;;4.21;1.89;;;;;;;20.61;68.96;100439.63;;;;-51
2021/08/27 09:00:28;;;;;;;3.23;2.12;;;;;;;20.63;68.98;100439.11;;;;-54
2021/08/27 09:03:28;;;;;;;2.53;1.81;;;;;;;20.64;69.02;100437.50;;;;-52
2021/08/27 09:06:28;;;;;;;4.27;1.98;;;;;;;20.65;68.94;100432.77;;;;-54
2021/08/27 09:09:28;;;;;;;3.18;1.98;;;;;;;20.65;69.02;100434.98;;;;-52
2021/08/27 09:12:29;;;;;;;4.19;2.13;;;;;;;20.66;69.00;100441.66;;;;-52
2021/08/27 09:15:28;;;;;;;3.33;2.07;;;;;;;20.67;69.01;100450.95;;;;-54
2021/08/27 09:18:28;;;;;;;2.43;1.95;;;;;;;20.69;69.00;100446.64;;;;-52
2021/08/27 09:21:28;;;;;;;3.65;1.95;;;;;;;20.70;68.97;100448.75;;;;-57
2021/08/27 09:24:29;;;;;;;3.13;1.97;;;;;;;20.72;68.94;100447.20;;;;-53
2021/08/27 09:27:28;;;;;;;2.45;2.00;;;;;;;20.72;68.85;100448.91;;;;-57
2021/08/27 09:30:28;;;;;;;3.39;2.11;;;;;;;20.75;68.85;100453.73;;;;-56
2021/08/27 09:33:29;;;;;;;4.01;2.06;;;;;;;20.75;68.79;100448.41;;;;-61
2021/08/27 09:36:28;;;;;;;4.06;2.09;;;;;;;20.76;68.77;100450.87;;;;-50
2021/08/27 09:39:28;;;;;;;4.11;2.04;;;;;;;20.75;68.84;100452.56;;;;-50
2021/08/27 09:42:28;;;;;;;3.00;2.15;;;;;;;20.75;68.83;100452.51;;;;-50
2021/08/27 09:45:28;;;;;;;3.49;2.23;;;;;;;20.75;68.80;100457.16;;;;-49
2021/08/27 09:48:28;;;;;;;9.35;2.39;;;;;;;20.78;68.61;100460.73;;;;-52
2021/08/27 09:51:28;;;;;;;15.91;2.83;;;;;;;20.79;68.62;100461.47;;;;-52
2021/08/27 09:54:28;;;;;;;9.11;2.55;;;;;;;20.79;68.57;100460.06;;;;-56
2021/08/27 09:57:28;;;;;;;10.17;2.21;;;;;;;20.81;68.59;100461.53;;;;-54
2021/08/27 10:00:28;;;;;;;6.99;2.31;;;;;;;20.80;68.54;100458.86;;;;-54
2021/08/27 10:03:28;;;;;;;10.77;2.26;;;;;;;20.81;68.52;100461.13;;;;-60
2021/08/27 10:06:28;;;;;;;3.95;2.29;;;;;;;20.81;68.50;100461.45;;;;-55
2021/08/27 10:09:28;;;;;;;5.02;2.28;;;;;;;20.80;68.49;100460.73;;;;-51
2021/08/27 10:12:28;;;;;;;4.56;2.14;;;;;;;20.81;68.51;100459.98;;;;-51
2021/08/27 10:15:28;;;;;;;4.89;2.19;;;;;;;20.82;68.40;100458.55;;;;-48
2021/08/27 10:18:28;;;;;;;7.30;2.42;;;;;;;20.82;68.40;100453.23;;;;-52
2021/08/27 10:21:28;;;;;;;4.19;2.16;;;;;;;20.84;68.41;100453.00;;;;-55
2021/08/27 10:24:28;;;;;;;5.29;2.20;;;;;;;20.85;68.40;100458.03;;;;-61
2021/08/27 10:27:28;;;;;;;13.49;2.38;;;;;;;20.85;68.35;100455.50;;;;-59
2021/08/27 10:30:28;;;;;;;4.05;2.23;;;;;;;20.86;68.42;100452.03;;;;-58
2021/08/27 10:33:28;;;;;;;3.63;2.19;;;;;;;20.87;68.42;100453.87;;;;-61
2021/08/27 10:38:28;;;;;;;3.93;2.30;;;;;;;20.88;68.48;100449.91;;;;-56
2021/08/27 10:41:29;;;;;;;5.71;2.16;;;;;;;20.89;68.39;100447.13;;;;-60
2021/08/27 10:44:28;;;;;;;2.97;2.20;;;;;;;20.89;68.53;100445.73;;;;-60
2021/08/27 10:47:28;;;;;;;4.21;2.03;;;;;;;20.89;68.42;100441.59;;;;-59
2021/08/27 10:50:28;;;;;;;3.35;2.25;;;;;;;20.87;68.43;100446.06;;;;-59
2021/08/27 10:53:30;;;;;;;3.19;2.00;;;;;;;20.88;68.44;100446.24;;;;-60
2021/08/27 10:56:28;;;;;;;3.76;2.20;;;;;;;20.88;68.41;100439.97;;;;-59
2021/08/27 10:59:28;;;;;;;2.57;1.99;;;;;;;20.87;68.44;100441.09;;;;-60
2021/08/27 11:02:28;;;;;;;5.01;2.33;;;;;;;20.86;68.41;100437.77;;;;-59
2021/08/27 11:05:28;;;;;;;3.55;2.23;;;;;;;20.86;68.44;100436.30;;;;-60
2021/08/27 11:08:28;;;;;;;2.85;2.23;;;;;;;20.86;68.41;100438.75;;;;-60
2021/08/27 11:11:28;;;;;;;3.33;2.27;;;;;;;20.86;68.37;100440.86;;;;-60
2021/08/27 11:14:28;;;;;;;2.53;2.10;;;;;;;20.85;68.36;100438.07;;;;-60
2021/08/27 11:17:28;;;;;;;2.83;2.15;;;;;;;20.85;68.39;100441.50;;;;-59
2021/08/27 11:20:28;;;;;;;3.36;2.00;;;;;;;20.86;68.35;100440.62;;;;-60
2021/08/27 11:23:28;;;;;;;2.57;2.19;;;;;;;20.85;68.37;100434.98;;;;-59
2021/08/27 11:26:28;;;;;;;3.52;1.90;;;;;;;20.86;68.37;100439.97;;;;-59
2021/08/27 11:29:28;;;;;;;4.42;2.10;;;;;;;20.85;68.42;100437.43;;;;-59
2021/08/27 11:32:28;;;;;;;3.05;2.06;;;;;;;20.85;68.35;100433.59;;;;-58
2021/08/27 11:35:28;;;;;;;2.30;2.10;;;;;;;20.85;68.39;100429.28;;;;-59
2021/08/27 11:38:28;;;;;;;2.68;1.98;;;;;;;20.85;68.43;100435.07;;;;-61
2021/08/27 11:41:28;;;;;;;2.58;2.00;;;;;;;20.84;68.36;100431.25;;;;-61
2021/08/27 11:44:28;;;;;;;2.23;1.91;;;;;;;20.84;68.40;100431.41;;;;-59
2021/08/27 11:47:28;;;;;;;2.80;2.12;;;;;;;20.83;68.39;100430.91;;;;-59
2021/08/27 11:50:28;;;;;;;2.46;2.07;;;;;;;20.84;68.34;100431.34;;;;-61
2021/08/27 11:53:28;;;;;;;2.60;1.97;;;;;;;20.83;68.41;100426.52;;;;-61
2021/08/27 11:56:28;;;;;;;2.29;2.07;;;;;;;20.83;68.37;100426.59;;;;-62
2021/08/27 11:59:28;;;;;;;2.43;1.90;;;;;;;20.83;68.44;100427.97;;;;-59
2021/08/27 12:02:28;;;;;;;2.49;2.07;;;;;;;20.84;68.40;100429.70;;;;-60
2021/08/27 12:05:28;;;;;;;2.43;2.23;;;;;;;20.83;68.42;100432.62;;;;-60
2021/08/27 12:08:28;;;;;;;3.02;2.03;;;;;;;20.83;68.41;100434.57;;;;-61
2021/08/27 12:11:28;;;;;;;3.66;2.11;;;;;;;20.83;68.41;100437.42;;;;-61
2021/08/27 12:14:28;;;;;;;3.89;2.22;;;;;;;20.83;68.44;100438.89;;;;-61
2021/08/27 12:17:28;;;;;;;2.47;2.02;;;;;;;20.83;68.41;100437.50;;;;-60
2021/08/27 12:20:28;;;;;;;3.36;1.97;;;;;;;20.85;68.44;100432.46;;;;-64
2021/08/27 12:23:28;;;;;;;3.04;2.15;;;;;;;20.87;68.42;100436.53;;;;-52
2021/08/27 12:26:29;;;;;;;3.63;2.21;;;;;;;20.88;68.42;100435.66;;;;-52
2021/08/27 12:29:28;;;;;;;3.58;2.12;;;;;;;20.89;68.51;100432.13;;;;-45
2021/08/27 12:32:28;;;;;;;10.84;2.39;;;;;;;20.91;68.53;100431.48;;;;-53
2021/08/27 12:35:28;;;;;;;4.05;2.37;;;;;;;20.92;68.59;100434.16;;;;-50
2021/08/27 12:38:28;;;;;;;7.64;2.42;;;;;;;20.92;68.50;100434.81;;;;-50
2021/08/27 12:41:29;;;;;;;3.39;2.05;;;;;;;20.91;68.53;100434.50;;;;-50
2021/08/27 12:44:28;;;;;;;6.75;2.34;;;;;;;20.91;68.53;100433.69;;;;-50
2021/08/27 12:47:28;;;;;;;4.95;2.22;;;;;;;20.90;68.53;100438.01;;;;-53
2021/08/27 12:50:28;;;;;;;4.27;2.39;;;;;;;20.89;68.48;100429.36;;;;-52
2021/08/27 12:53:28;;;;;;;4.26;2.37;;;;;;;20.89;68.53;100430.83;;;;-58
2021/08/27 12:56:28;;;;;;;3.51;2.24;;;;;;;20.89;68.53;100435.15;;;;-57
2021/08/27 12:59:28;;;;;;;4.43;2.20;;;;;;;20.88;68.51;100439.23;;;;-58
2021/08/27 13:02:28;;;;;;;3.95;2.29;;;;;;;20.88;68.51;100437.20;;;;-57
2021/08/27 13:05:28;;;;;;;5.89;2.33;;;;;;;20.87;68.53;100429.28;;;;-50
2021/08/27 13:08:28;;;;;;;4.47;2.21;;;;;;;20.87;68.54;100427.09;;;;-50
2021/08/27 13:11:28;;;;;;;5.98;2.41;;;;;;;20.86;68.56;100417.48;;;;-50
2021/08/27 13:14:28;;;;;;;3.44;2.37;;;;;;;20.87;68.54;100408.19;;;;-50
2021/08/27 13:17:28;;;;;;;3.58;2.37;;;;;;;20.88;68.54;100407.88;;;;-50
2021/08/27 13:20:28;;;;;;;2.34;2.13;;;;;;;20.87;68.44;100416.48;;;;-50
2021/08/27 13:23:29;;;;;;;2.31;2.05;;;;;;;20.87;68.46;100417.22;;;;-52
2021/08/27 13:26:28;;;;;;;3.88;2.10;;;;;;;20.87;68.49;100409.81;;;;-58
2021/08/27 13:29:28;;;;;;;2.90;2.12;;;;;;;20.87;68.52;100411.19;;;;-50
2021/08/27 13:32:28;;;;;;;3.96;2.20;;;;;;;20.87;68.49;100406.63;;;;-50
2021/08/27 13:35:28;;;;;;;2.43;2.22;;;;;;;20.88;68.48;100406.09;;;;-53
2021/08/27 13:38:28;;;;;;;2.46;2.18;;;;;;;20.87;68.52;100402.56;;;;-50
2021/08/27 13:41:28;;;;;;;5.14;2.30;;;;;;;20.87;68.49;100398.65;;;;-50
2021/08/27 13:44:29;;;;;;;3.10;2.09;;;;;;;20.87;68.52;100388.88;;;;-50
2021/08/27 13:47:28;;;;;;;4.75;2.28;;;;;;;20.87;68.58;100390.59;;;;-50
2021/08/27 13:50:28;;;;;;;3.59;2.29;;;;;;;20.87;68.51;100395.31;;;;-50
2021/08/27 13:53:28;;;;;;;3.15;2.19;;;;;;;20.87;68.52;100387.24;;;;-50
2021/08/27 13:56:28;;;;;;;3.62;2.13;;;;;;;20.89;68.63;100385.55;;;;-52
2021/08/27 13:59:28;;;;;;;2.63;1.93;;;;;;;20.91;68.61;100382.20;;;;-54
2021/08/27 14:02:28;;;;;;;2.91;2.05;;;;;;;20.91;68.69;100374.55;;;;-51
2021/08/27 14:05:28;;;;;;;2.39;2.10;;;;;;;20.93;68.67;100368.44;;;;-51
2021/08/27 14:08:28;;;;;;;5.07;2.25;;;;;;;20.93;68.72;100373.56;;;;-53
2021/08/27 14:11:29;;;;;;;2.17;2.02;;;;;;;20.93;68.76;100371.84;;;;-53
2021/08/27 14:14:28;;;;;;;2.73;2.23;;;;;;;20.93;68.74;100369.56;;;;-63
2021/08/27 14:17:28;;;;;;;3.60;2.11;;;;;;;20.94;68.80;100362.42;;;;-64
2021/08/27 14:20:28;;;;;;;4.06;2.17;;;;;;;20.94;68.78;100364.53;;;;-50
2021/08/27 14:23:29;;;;;;;3.27;2.23;;;;;;;20.94;68.86;100365.51;;;;-57
2021/08/27 14:26:28;;;;;;;4.91;2.29;;;;;;;20.96;68.80;100359.97;;;;-51
2021/08/27 14:29:28;;;;;;;4.22;2.15;;;;;;;20.98;68.80;100355.90;;;;-61
2021/08/27 14:32:28;;;;;;;4.47;2.40;;;;;;;20.99;68.82;100362.16;;;;-53
2021/08/27 14:35:28;;;;;;;4.57;2.36;;;;;;;21.01;68.81;100358.17;;;;-61
2021/08/27 14:38:28;;;;;;;3.33;2.20;;;;;;;20.99;68.84;100355.55;;;;-58
2021/08/27 14:41:29;;;;;;;4.32;2.37;;;;;;;21.01;68.84;100352.30;;;;-52
2021/08/27 14:44:28;;;;;;;3.78;2.20;;;;;;;21.02;68.81;100355.13;;;;-51
2021/08/27 14:47:28;;;;;;;6.63;2.43;;;;;;;21.02;68.78;100352.05;;;;-52
2021/08/27 14:50:28;;;;;;;4.97;2.37;;;;;;;21.04;68.85;100354.72;;;;-51
2021/08/27 14:53:28;;;;;;;2.52;2.31;;;;;;;21.03;68.84;100355.46;;;;-48
2021/08/27 14:56:28;;;;;;;4.71;2.31;;;;;;;21.04;68.84;100357.08;;;;-53
2021/08/27 14:59:28;;;;;;;4.20;2.29;;;;;;;21.05;68.75;100356.28;;;;-52
2021/08/27 15:02:28;;;;;;;5.36;2.59;;;;;;;21.06;68.77;100355.94;;;;-51
2021/08/27 15:05:28;;;;;;;3.73;2.26;;;;;;;21.05;68.83;100357.58;;;;-60
2021/08/27 15:08:28;;;;;;;6.67;2.39;;;;;;;21.06;68.80;100357.00;;;;-61
2021/08/27 15:11:28;;;;;;;5.59;2.29;;;;;;;21.07;68.78;100359.13;;;;-62
2021/08/27 15:14:28;;;;;;;7.10;2.61;;;;;;;21.07;68.83;100364.02;;;;-61
2021/08/27 15:17:28;;;;;;;6.14;2.33;;;;;;;21.08;68.75;100365.47;;;;-61
2021/08/27 15:20:29;;;;;;;3.85;2.33;;;;;;;21.06;68.85;100365.41;;;;-52
2021/08/27 15:23:28;;;;;;;4.09;2.25;;;;;;;21.06;68.73;100362.48;;;;-52
2021/08/27 15:26:28;;;;;;;4.79;2.41;;;;;;;21.04;68.77;100361.16;;;;-51
2021/08/27 15:29:28;;;;;;;2.65;2.25;;;;;;;21.03;68.81;100357.84;;;;-58
2021/08/27 15:32:28;;;;;;;5.07;2.25;;;;;;;21.05;68.76;100363.53;;;;-55
2021/08/27 15:35:28;;;;;;;5.44;2.30;;;;;;;21.05;68.78;100358.48;;;;-52
2021/08/27 15:38:28;;;;;;;4.30;2.26;;;;;;;21.06;68.79;100354.96;;;;-57
2021/08/27 15:41:28;;;;;;;5.19;2.19;;;;;;;21.06;68.77;100355.45;;;;-53
2021/08/27 15:44:28;;;;;;;3.75;2.37;;;;;;;21.06;68.76;100356.83;;;;-58
2021/08/27 15:47:28;;;;;;;3.49;2.19;;;;;;;21.07;68.74;100359.86;;;;-60
2021/08/27 15:50:28;;;;;;;4.63;2.41;;;;;;;21.06;68.69;100362.64;;;;-55
2021/08/27 15:53:28;;;;;;;5.58;2.39;;;;;;;21.06;68.70;100361.98;;;;-59
2021/08/27 15:56:28;;;;;;;2.92;2.25;;;;;;;21.06;68.68;100364.83;;;;-60
2021/08/27 15:59:28;;;;;;;3.98;2.33;;;;;;;21.06;68.63;100368.73;;;;-60
2021/08/27 16:02:28;;;;;;;3.08;2.34;;;;;;;21.07;68.73;100373.39;;;;-56
2021/08/27 16:05:28;;;;;;;4.37;2.46;;;;;;;21.07;68.66;100376.41;;;;-49
2021/08/27 16:08:28;;;;;;;3.92;2.25;;;;;;;21.07;68.77;100380.64;;;;-49
2021/08/27 16:11:28;;;;;;;7.22;2.66;;;;;;;21.10;68.64;100380.95;;;;-52
2021/08/27 16:14:28;;;;;;;2.97;2.29;;;;;;;21.09;68.76;100376.73;;;;-52
2021/08/27 16:17:28;;;;;;;7.01;2.57;;;;;;;21.09;68.78;100378.19;;;;-53
2021/08/27 16:20:28;;;;;;;3.86;2.23;;;;;;;21.10;68.75;100375.25;;;;-55
2021/08/27 16:23:28;;;;;;;3.26;2.21;;;;;;;21.11;68.77;100372.16;;;;-59
2021/08/27 16:26:28;;;;;;;3.83;2.50;;;;;;;21.11;68.81;100376.66;;;;-56
2021/08/27 16:29:29;;;;;;;2.53;2.33;;;;;;;21.11;68.86;100377.05;;;;-51
2021/08/27 16:32:28;;;;;;;5.23;2.20;;;;;;;21.12;68.83;100375.81;;;;-51
2021/08/27 16:35:28;;;;;;;4.71;2.30;;;;;;;21.12;68.87;100376.95;;;;-51
2021/08/27 16:38:28;;;;;;;3.04;2.22;;;;;;;21.12;68.93;100377.53;;;;-48
2021/08/27 16:41:28;;;;;;;3.26;2.20;;;;;;;21.13;68.96;100379.00;;;;-51
2021/08/27 16:44:28;;;;;;;4.05;2.30;;;;;;;21.14;68.98;100379.64;;;;-55
2021/08/27 16:47:28;;;;;;;3.73;2.23;;;;;;;21.14;68.89;100378.83;;;;-55